createdAt,value
2024-02-11T00:00:34.473Z,647.0000
2024-02-11T00:01:36.724Z,647.0000
2024-02-11T00:02:38.843Z,646.0000
2024-02-11T00:03:41.122Z,643.0000
2024-02-11T00:04:43.242Z,643.0000
2024-02-11T00:05:45.470Z,644.0000
2024-02-11T00:06:47.621Z,644.0000
2024-02-11T00:07:49.799Z,646.0000
2024-02-11T00:08:52.078Z,648.0000
2024-02-11T00:09:54.159Z,642.0000
2024-02-11T00:10:56.389Z,637.0000
2024-02-11T00:11:58.534Z,633.0000
2024-02-11T00:12:58.765Z,632.0000
2024-02-11T00:14:00.850Z,635.0000
2024-02-11T00:15:02.900Z,639.0000
2024-02-11T00:16:05.041Z,635.0000
2024-02-11T00:17:07.292Z,632.0000
2024-02-11T00:18:09.342Z,625.0000
2024-02-11T00:19:11.589Z,626.0000
2024-02-11T00:20:13.698Z,618.0000
2024-02-11T00:21:15.814Z,620.0000
2024-02-11T00:22:17.938Z,617.0000
2024-02-11T00:23:20.142Z,625.0000
2024-02-11T00:24:22.212Z,629.0000
2024-02-11T00:25:24.373Z,622.0000
2024-02-11T00:26:26.514Z,617.0000
2024-02-11T00:27:28.660Z,622.0000
2024-02-11T00:28:30.889Z,621.0000
2024-02-11T00:29:32.955Z,616.0000
2024-02-11T00:30:35.086Z,619.0000
2024-02-11T00:31:37.262Z,616.0000
2024-02-11T00:32:39.552Z,614.0000
2024-02-11T00:33:42.284Z,612.0000
2024-02-11T00:34:43.848Z,609.0000
2024-02-11T00:35:45.918Z,603.0000
2024-02-11T00:36:48.107Z,605.0000
2024-02-11T00:37:50.279Z,601.0000
2024-02-11T00:38:50.272Z,600.0000
2024-02-11T00:39:52.491Z,603.0000
2024-02-11T00:40:54.677Z,605.0000
2024-02-11T00:41:56.786Z,606.0000
2024-02-11T00:42:58.902Z,601.0000
2024-02-11T00:44:01.102Z,595.0000
2024-02-11T00:45:03.198Z,597.0000
2024-02-11T00:46:05.355Z,596.0000
2024-02-11T00:47:07.625Z,595.0000
2024-02-11T00:48:09.761Z,600.0000
2024-02-11T00:49:11.920Z,596.0000
2024-02-11T00:50:14.212Z,599.0000
2024-02-11T00:51:16.234Z,600.0000
2024-02-11T00:52:18.467Z,598.0000
2024-02-11T00:53:20.682Z,593.0000
2024-02-11T00:54:22.726Z,590.0000
2024-02-11T00:55:24.922Z,589.0000
2024-02-11T00:56:27.068Z,591.0000
2024-02-11T00:57:29.246Z,595.0000
2024-02-11T00:58:31.456Z,593.0000
2024-02-11T00:59:33.589Z,591.0000
2024-02-11T01:00:35.848Z,590.0000
2024-02-11T01:01:37.941Z,589.0000
2024-02-11T01:02:40.089Z,590.0000
2024-02-11T01:03:42.267Z,590.0000
2024-02-11T01:04:44.685Z,585.0000
2024-02-11T01:05:46.805Z,587.0000
2024-02-11T01:06:48.806Z,584.0000
2024-02-11T01:07:51.045Z,581.0000
2024-02-11T01:08:53.131Z,584.0000
2024-02-11T01:09:55.284Z,586.0000
2024-02-11T01:10:57.509Z,586.0000
2024-02-11T01:11:59.674Z,590.0000
2024-02-11T01:12:59.719Z,592.0000
2024-02-11T01:14:01.881Z,587.0000
2024-02-11T01:15:04.056Z,589.0000
2024-02-11T01:16:06.246Z,581.0000
2024-02-11T01:17:08.435Z,578.0000
2024-02-11T01:18:10.641Z,574.0000
2024-02-11T01:19:12.744Z,575.0000
2024-02-11T01:20:14.969Z,579.0000
2024-02-11T01:21:17.086Z,577.0000
2024-02-11T01:22:19.240Z,577.0000
2024-02-11T01:23:21.484Z,577.0000
2024-02-11T01:24:23.840Z,577.0000
2024-02-11T01:25:25.753Z,576.0000
2024-02-11T01:26:27.925Z,577.0000
2024-02-11T01:27:30.114Z,574.0000
2024-02-11T01:28:32.353Z,578.0000
2024-02-11T01:29:34.462Z,580.0000
2024-02-11T01:30:36.598Z,577.0000
2024-02-11T01:31:41.363Z,573.0000
2024-02-11T01:32:40.991Z,576.0000
2024-02-11T01:33:43.236Z,569.0000
2024-02-11T01:34:45.381Z,567.0000
2024-02-11T01:35:47.570Z,576.0000
2024-02-11T01:36:49.765Z,569.0000
2024-02-11T01:37:52.017Z,573.0000
2024-02-11T01:38:54.175Z,572.0000
2024-02-11T01:39:56.398Z,578.0000
2024-02-11T01:40:56.506Z,568.0000
2024-02-11T01:41:58.751Z,569.0000
2024-02-11T01:43:00.982Z,565.0000
2024-02-11T01:44:03.276Z,566.0000
2024-02-11T01:45:05.483Z,562.0000
2024-02-11T01:46:07.761Z,566.0000
2024-02-11T01:47:09.996Z,565.0000
2024-02-11T01:48:12.248Z,567.0000
2024-02-11T01:49:14.515Z,564.0000
2024-02-11T01:50:16.852Z,561.0000
2024-02-11T01:51:16.805Z,564.0000
2024-02-11T01:52:19.086Z,566.0000
2024-02-11T01:53:21.293Z,568.0000
2024-02-11T01:54:23.527Z,567.0000
2024-02-11T01:55:25.702Z,564.0000
2024-02-11T01:56:27.887Z,566.0000
2024-02-11T01:57:30.106Z,566.0000
2024-02-11T01:58:32.414Z,565.0000
2024-02-11T01:59:34.481Z,564.0000
2024-02-11T02:00:36.719Z,563.0000
2024-02-11T02:01:38.890Z,560.0000
2024-02-11T02:02:41.102Z,565.0000
2024-02-11T02:03:43.279Z,566.0000
2024-02-11T02:04:45.667Z,566.0000
2024-02-11T02:05:45.820Z,547.0000
2024-02-11T02:06:47.858Z,555.0000
2024-02-11T02:07:50.074Z,552.0000
2024-02-11T02:08:52.228Z,555.0000
2024-02-11T02:09:54.440Z,556.0000
2024-02-11T02:10:56.627Z,555.0000
2024-02-11T02:11:58.822Z,553.0000
2024-02-11T02:13:01.064Z,558.0000
2024-02-11T02:14:03.271Z,562.0000
2024-02-11T02:15:05.390Z,560.0000
2024-02-11T02:16:07.633Z,560.0000
2024-02-11T02:17:09.946Z,556.0000
2024-02-11T02:18:12.200Z,556.0000
2024-02-11T02:19:14.277Z,558.0000
2024-02-11T02:20:16.514Z,556.0000
2024-02-11T02:21:18.667Z,558.0000
2024-02-11T02:22:18.747Z,559.0000
2024-02-11T02:23:20.996Z,560.0000
2024-02-11T02:24:23.202Z,560.0000
2024-02-11T02:25:25.385Z,563.0000
2024-02-11T02:26:27.553Z,557.0000
2024-02-11T02:27:29.764Z,558.0000
2024-02-11T02:28:32.023Z,555.0000
2024-02-11T02:29:34.206Z,555.0000
2024-02-11T02:30:36.432Z,555.0000
2024-02-11T02:31:38.664Z,556.0000
2024-02-11T02:32:40.916Z,559.0000
2024-02-11T02:33:43.157Z,559.0000
2024-02-11T02:34:45.339Z,559.0000
2024-02-11T02:35:47.509Z,554.0000
2024-02-11T02:36:47.540Z,551.0000
2024-02-11T02:37:49.841Z,554.0000
2024-02-11T02:38:52.011Z,556.0000
2024-02-11T02:39:54.121Z,552.0000
2024-02-11T02:40:56.396Z,553.0000
2024-02-11T02:41:58.541Z,553.0000
2024-02-11T02:43:00.775Z,552.0000
2024-02-11T02:44:03.041Z,555.0000
2024-02-11T02:45:05.140Z,557.0000
2024-02-11T02:46:07.312Z,559.0000
2024-02-11T02:47:09.579Z,558.0000
2024-02-11T02:48:11.790Z,557.0000
2024-02-11T02:49:13.928Z,554.0000
2024-02-11T02:50:16.094Z,554.0000
2024-02-11T02:51:18.117Z,556.0000
2024-02-11T02:52:20.281Z,559.0000
2024-02-11T02:53:22.473Z,561.0000
2024-02-11T02:54:24.639Z,558.0000
2024-02-11T02:55:26.808Z,557.0000
2024-02-11T02:56:29.083Z,555.0000
2024-02-11T02:57:29.136Z,553.0000
2024-02-11T02:58:31.329Z,554.0000
2024-02-11T02:59:33.499Z,552.0000
2024-02-11T03:00:35.790Z,553.0000
2024-02-11T03:01:37.869Z,556.0000
2024-02-11T03:02:40.017Z,553.0000
2024-02-11T03:03:42.334Z,553.0000
2024-02-11T03:04:44.433Z,549.0000
2024-02-11T03:05:46.567Z,549.0000
2024-02-11T03:06:48.682Z,547.0000
2024-02-11T03:07:50.882Z,546.0000
2024-02-11T03:08:53.032Z,548.0000
2024-02-11T03:09:55.268Z,551.0000
2024-02-11T03:10:57.445Z,551.0000
2024-02-11T03:11:59.545Z,551.0000
2024-02-11T03:13:01.656Z,552.0000
2024-02-11T03:14:03.930Z,551.0000
2024-02-11T03:15:06.038Z,553.0000
2024-02-11T03:16:08.235Z,555.0000
2024-02-11T03:17:10.527Z,557.0000
2024-02-11T03:18:12.663Z,549.0000
2024-02-11T03:19:14.815Z,546.0000
2024-02-11T03:20:17.239Z,545.0000
2024-02-11T03:21:19.206Z,544.0000
2024-02-11T03:22:19.266Z,547.0000
2024-02-11T03:23:21.515Z,545.0000
2024-02-11T03:24:23.742Z,546.0000
2024-02-11T03:25:25.994Z,542.0000
2024-02-11T03:26:28.230Z,541.0000
2024-02-11T03:27:30.497Z,544.0000
2024-02-11T03:28:32.824Z,544.0000
2024-02-11T03:29:34.972Z,544.0000
2024-02-11T03:30:37.278Z,545.0000
2024-02-11T03:31:39.489Z,544.0000
2024-02-11T03:32:39.643Z,545.0000
2024-02-11T03:33:42.008Z,531.0000
2024-02-11T03:34:43.952Z,531.0000
2024-02-11T03:35:46.100Z,537.0000
2024-02-11T03:36:48.328Z,538.0000
2024-02-11T03:37:49.490Z,541.0000
2024-02-11T03:38:51.566Z,542.0000
2024-02-11T03:39:53.763Z,539.0000
2024-02-11T03:40:56.038Z,541.0000
2024-02-11T03:41:58.215Z,537.0000
2024-02-11T03:42:58.348Z,538.0000
2024-02-11T03:44:00.590Z,535.0000
2024-02-11T03:45:02.820Z,528.0000
2024-02-11T03:46:05.004Z,531.0000
2024-02-11T03:47:07.221Z,529.0000
2024-02-11T03:48:09.490Z,537.0000
2024-02-11T03:49:11.616Z,538.0000
2024-02-11T03:50:13.852Z,534.0000
2024-02-11T03:51:15.995Z,534.0000
2024-02-11T03:52:18.173Z,536.0000
2024-02-11T03:53:20.474Z,539.0000
2024-02-11T03:54:22.534Z,534.0000
2024-02-11T03:55:24.755Z,536.0000
2024-02-11T03:56:26.990Z,534.0000
2024-02-11T03:57:29.121Z,535.0000
2024-02-11T03:58:31.298Z,536.0000
2024-02-11T03:59:33.486Z,532.0000
2024-02-11T04:00:35.732Z,533.0000
2024-02-11T04:01:37.930Z,535.0000
2024-02-11T04:02:40.074Z,535.0000
2024-02-11T04:03:42.325Z,534.0000
2024-02-11T04:04:44.500Z,530.0000
2024-02-11T04:05:46.697Z,532.0000
2024-02-11T04:06:48.859Z,534.0000
2024-02-11T04:07:51.100Z,535.0000
2024-02-11T04:08:53.250Z,531.0000
2024-02-11T04:09:55.486Z,533.0000
2024-02-11T04:10:57.713Z,535.0000
2024-02-11T04:11:59.949Z,537.0000
2024-02-11T04:13:02.181Z,540.0000
2024-02-11T04:14:04.433Z,534.0000
2024-02-11T04:15:06.578Z,532.0000
2024-02-11T04:16:08.823Z,534.0000
2024-02-11T04:17:11.137Z,530.0000
2024-02-11T04:18:13.334Z,534.0000
2024-02-11T04:19:15.594Z,534.0000
2024-02-11T04:20:17.844Z,536.0000
2024-02-11T04:21:17.811Z,534.0000
2024-02-11T04:22:20.103Z,535.0000
2024-02-11T04:23:22.356Z,532.0000
2024-02-11T04:24:24.504Z,537.0000
2024-02-11T04:25:26.715Z,532.0000
2024-02-11T04:26:29.019Z,531.0000
2024-02-11T04:27:31.220Z,535.0000
2024-02-11T04:28:33.482Z,538.0000
2024-02-11T04:29:35.727Z,534.0000
2024-02-11T04:30:37.931Z,537.0000
2024-02-11T04:31:40.146Z,528.0000
2024-02-11T04:32:42.402Z,533.0000
2024-02-11T04:33:44.639Z,536.0000
2024-02-11T04:34:46.909Z,534.0000
2024-02-11T04:35:49.095Z,532.0000
2024-02-11T04:36:51.351Z,530.0000
2024-02-11T04:37:53.575Z,526.0000
2024-02-11T04:38:55.758Z,522.0000
2024-02-11T04:39:57.939Z,530.0000
2024-02-11T04:41:00.143Z,531.0000
2024-02-11T04:42:02.314Z,533.0000
2024-02-11T04:43:04.551Z,526.0000
2024-02-11T04:44:06.774Z,531.0000
2024-02-11T04:45:08.925Z,539.0000
2024-02-11T04:46:11.082Z,537.0000
2024-02-11T04:47:13.369Z,531.0000
2024-02-11T04:48:15.491Z,531.0000
2024-02-11T04:49:17.698Z,529.0000
2024-02-11T04:50:19.981Z,532.0000
2024-02-11T04:51:22.039Z,532.0000
2024-02-11T04:52:26.283Z,536.0000
2024-02-11T04:53:24.390Z,535.0000
2024-02-11T04:54:26.551Z,530.0000
2024-02-11T04:55:28.889Z,535.0000
2024-02-11T04:56:31.006Z,528.0000
2024-02-11T04:57:33.182Z,533.0000
2024-02-11T04:58:35.391Z,534.0000
2024-02-11T04:59:37.616Z,531.0000
2024-02-11T05:00:39.891Z,534.0000
2024-02-11T05:01:42.100Z,538.0000
2024-02-11T05:02:44.277Z,535.0000
2024-02-11T05:03:46.549Z,533.0000
2024-02-11T05:04:48.793Z,527.0000
2024-02-11T05:05:51.172Z,527.0000
2024-02-11T05:06:53.142Z,523.0000
2024-02-11T05:07:53.239Z,521.0000
2024-02-11T05:08:55.434Z,521.0000
2024-02-11T05:09:57.636Z,519.0000
2024-02-11T05:10:59.853Z,522.0000
2024-02-11T05:12:01.972Z,521.0000
2024-02-11T05:13:04.208Z,520.0000
2024-02-11T05:14:06.476Z,526.0000
2024-02-11T05:15:08.619Z,526.0000
2024-02-11T05:16:10.858Z,528.0000
2024-02-11T05:17:13.091Z,524.0000
2024-02-11T05:18:15.255Z,525.0000
2024-02-11T05:19:17.482Z,529.0000
2024-02-11T05:20:19.707Z,527.0000
2024-02-11T05:21:21.892Z,526.0000
2024-02-11T05:22:24.097Z,524.0000
2024-02-11T05:23:26.373Z,527.0000
2024-02-11T05:24:28.506Z,523.0000
2024-02-11T05:25:30.738Z,529.0000
2024-02-11T05:26:33.019Z,531.0000
2024-02-11T05:27:35.204Z,533.0000
2024-02-11T05:28:37.463Z,531.0000
2024-02-11T05:29:39.633Z,532.0000
2024-02-11T05:30:43.683Z,536.0000
2024-02-11T05:31:41.976Z,531.0000
2024-02-11T05:32:44.222Z,529.0000
2024-02-11T05:33:46.411Z,527.0000
2024-02-11T05:34:48.545Z,526.0000
2024-02-11T05:35:51.440Z,529.0000
2024-02-11T05:36:50.816Z,525.0000
2024-02-11T05:37:53.055Z,528.0000
2024-02-11T05:38:55.249Z,522.0000
2024-02-11T05:39:57.474Z,526.0000
2024-02-11T05:41:00.028Z,521.0000
2024-02-11T05:41:59.796Z,520.0000
2024-02-11T05:43:02.049Z,517.0000
2024-02-11T05:44:04.301Z,524.0000
2024-02-11T05:45:06.534Z,519.0000
2024-02-11T05:46:08.899Z,524.0000
2024-02-11T05:47:11.195Z,525.0000
2024-02-11T05:48:13.460Z,522.0000
2024-02-11T05:49:15.637Z,523.0000
2024-02-11T05:50:15.741Z,521.0000
2024-02-11T05:51:17.857Z,522.0000
2024-02-11T05:52:20.083Z,515.0000
2024-02-11T05:53:22.350Z,525.0000
2024-02-11T05:54:24.363Z,525.0000
2024-02-11T05:55:26.529Z,524.0000
2024-02-11T05:56:28.791Z,523.0000
2024-02-11T05:57:30.921Z,521.0000
2024-02-11T05:58:33.104Z,523.0000
2024-02-11T05:59:35.380Z,520.0000
2024-02-11T06:00:38.051Z,519.0000
2024-02-11T06:01:39.887Z,520.0000
2024-02-11T06:02:42.164Z,520.0000
2024-02-11T06:03:44.355Z,519.0000
2024-02-11T06:04:46.585Z,521.0000
2024-02-11T06:05:48.793Z,520.0000
2024-02-11T06:06:51.087Z,523.0000
2024-02-11T06:07:53.626Z,521.0000
2024-02-11T06:08:53.452Z,524.0000
2024-02-11T06:09:55.608Z,524.0000
2024-02-11T06:10:57.909Z,527.0000
2024-02-11T06:12:00.065Z,522.0000
2024-02-11T06:13:02.362Z,520.0000
2024-02-11T06:14:04.548Z,518.0000
2024-02-11T06:15:06.719Z,525.0000
2024-02-11T06:16:08.924Z,525.0000
2024-02-11T06:17:11.173Z,529.0000
2024-02-11T06:18:13.431Z,526.0000
2024-02-11T06:19:15.595Z,523.0000
2024-02-11T06:20:17.752Z,520.0000
2024-02-11T06:21:19.928Z,525.0000
2024-02-11T06:22:22.142Z,521.0000
2024-02-11T06:23:22.418Z,507.0000
2024-02-11T06:24:24.441Z,501.0000
2024-02-11T06:25:26.952Z,495.0000
2024-02-11T06:26:28.962Z,503.0000
2024-02-11T06:27:31.141Z,506.0000
2024-02-11T06:28:33.410Z,509.0000
2024-02-11T06:29:35.564Z,505.0000
2024-02-11T06:30:37.830Z,502.0000
2024-02-11T06:31:40.016Z,505.0000
2024-02-11T06:32:42.254Z,510.0000
2024-02-11T06:33:44.527Z,510.0000
2024-02-11T06:34:46.609Z,511.0000
2024-02-11T06:35:48.762Z,509.0000
2024-02-11T06:36:50.948Z,511.0000
2024-02-11T06:37:53.104Z,513.0000
2024-02-11T06:38:55.303Z,511.0000
2024-02-11T06:39:57.459Z,1443.0000
2024-02-11T06:40:59.698Z,1444.0000
2024-02-11T06:42:01.877Z,1170.0000
2024-02-11T06:43:01.929Z,545.0000
2024-02-11T06:44:04.216Z,512.0000
2024-02-11T06:45:06.398Z,522.0000
2024-02-11T06:46:08.587Z,681.0000
2024-02-11T06:47:10.855Z,758.0000
2024-02-11T06:48:10.963Z,764.0000
2024-02-11T06:49:13.197Z,753.0000
2024-02-11T06:50:15.357Z,728.0000
2024-02-11T06:51:17.548Z,709.0000
2024-02-11T06:52:19.784Z,596.0000
2024-02-11T06:53:19.987Z,529.0000
2024-02-11T06:54:22.119Z,636.0000
2024-02-11T06:55:24.327Z,647.0000
2024-02-11T06:56:26.600Z,640.0000
2024-02-11T06:57:28.786Z,629.0000
2024-02-11T06:58:31.036Z,610.0000
2024-02-11T06:59:33.309Z,596.0000
2024-02-11T07:00:35.518Z,601.0000
2024-02-11T07:01:37.738Z,613.0000
2024-02-11T07:02:39.944Z,612.0000
2024-02-11T07:03:42.221Z,606.0000
2024-02-11T07:04:44.582Z,446.0000
2024-02-11T07:05:46.872Z,590.0000
2024-02-11T07:06:48.986Z,558.0000
2024-02-11T07:07:53.124Z,544.0000
2024-02-11T07:08:53.509Z,545.0000
2024-02-11T07:09:53.632Z,549.0000
2024-02-11T07:10:55.895Z,558.0000
2024-02-11T07:11:58.118Z,561.0000
2024-02-11T07:13:00.378Z,566.0000
2024-02-11T07:14:02.668Z,565.0000
2024-02-11T07:15:04.877Z,567.0000
2024-02-11T07:16:07.118Z,570.0000
2024-02-11T07:17:09.411Z,582.0000
2024-02-11T07:18:12.050Z,589.0000
2024-02-11T07:19:13.928Z,604.0000
2024-02-11T07:20:17.262Z,606.0000
2024-02-11T07:21:18.374Z,605.0000
2024-02-11T07:22:18.483Z,598.0000
2024-02-11T07:23:20.809Z,600.0000
2024-02-11T07:24:22.941Z,605.0000
2024-02-11T07:25:25.193Z,607.0000
2024-02-11T07:26:27.520Z,605.0000
2024-02-11T07:27:29.759Z,601.0000
2024-02-11T07:28:32.032Z,602.0000
2024-02-11T07:29:34.293Z,598.0000
2024-02-11T07:30:34.434Z,604.0000
2024-02-11T07:31:36.827Z,608.0000
2024-02-11T07:32:39.093Z,610.0000
2024-02-11T07:33:41.594Z,610.0000
2024-02-11T07:34:43.826Z,613.0000
2024-02-11T07:35:45.997Z,616.0000
2024-02-11T07:36:48.159Z,612.0000
2024-02-11T07:37:48.304Z,565.0000
2024-02-11T07:38:50.549Z,569.0000
2024-02-11T07:39:52.844Z,579.0000
2024-02-11T07:40:55.157Z,637.0000
2024-02-11T07:41:55.354Z,711.0000
2024-02-11T07:42:57.615Z,689.0000
2024-02-11T07:43:59.976Z,683.0000
2024-02-11T07:45:00.138Z,671.0000
2024-02-11T07:46:02.508Z,663.0000
2024-02-11T07:47:04.804Z,656.0000
2024-02-11T07:48:07.137Z,652.0000
2024-02-11T07:49:09.449Z,648.0000
2024-02-11T07:50:11.685Z,648.0000
2024-02-11T07:51:13.933Z,647.0000
2024-02-11T07:52:14.049Z,650.0000
2024-02-11T07:53:16.354Z,651.0000
2024-02-11T07:54:18.562Z,656.0000
2024-02-11T07:55:20.856Z,664.0000
2024-02-11T07:56:23.149Z,670.0000
2024-02-11T07:57:25.403Z,677.0000
2024-02-11T07:58:27.758Z,686.0000
2024-02-11T07:59:29.957Z,690.0000
2024-02-11T08:00:30.084Z,693.0000
2024-02-11T08:01:32.459Z,695.0000
2024-02-11T08:02:34.714Z,707.0000
2024-02-11T08:03:37.039Z,711.0000
2024-02-11T08:04:39.308Z,712.0000
2024-02-11T08:05:41.553Z,717.0000
2024-02-11T08:06:43.826Z,716.0000
2024-02-11T08:07:43.976Z,720.0000
2024-02-11T08:08:46.204Z,723.0000
2024-02-11T08:09:48.464Z,725.0000
2024-02-11T08:10:50.781Z,731.0000
2024-02-11T08:11:50.858Z,735.0000
2024-02-11T08:12:53.097Z,738.0000
2024-02-11T08:13:55.468Z,742.0000
2024-02-11T08:14:57.654Z,747.0000
2024-02-11T08:15:57.738Z,747.0000
2024-02-11T08:17:00.074Z,749.0000
2024-02-11T08:18:02.420Z,755.0000
2024-02-11T08:19:04.802Z,754.0000
2024-02-11T08:20:06.801Z,758.0000
2024-02-11T08:21:09.040Z,758.0000
2024-02-11T08:22:11.315Z,760.0000
2024-02-11T08:23:13.566Z,759.0000
2024-02-11T08:24:15.704Z,761.0000
2024-02-11T08:25:17.985Z,770.0000
2024-02-11T08:26:20.369Z,776.0000
2024-02-11T08:27:22.559Z,775.0000
2024-02-11T08:28:22.680Z,778.0000
2024-02-11T08:29:25.054Z,778.0000
2024-02-11T08:30:27.281Z,783.0000
2024-02-11T08:31:29.443Z,785.0000
2024-02-11T08:32:29.679Z,785.0000
2024-02-11T08:33:31.932Z,787.0000
2024-02-11T08:34:34.084Z,788.0000
2024-02-11T08:35:36.366Z,786.0000
2024-02-11T08:36:36.486Z,788.0000
2024-02-11T08:37:38.826Z,783.0000
2024-02-11T08:38:40.980Z,777.0000
2024-02-11T08:39:43.280Z,772.0000
2024-02-11T08:40:43.421Z,774.0000
2024-02-11T08:41:45.728Z,776.0000
2024-02-11T08:42:48.061Z,794.0000
2024-02-11T08:43:50.390Z,822.0000
2024-02-11T08:44:52.697Z,833.0000
2024-02-11T08:45:55.021Z,835.0000
2024-02-11T08:46:57.304Z,837.0000
2024-02-11T08:47:57.637Z,833.0000
2024-02-11T08:48:59.886Z,833.0000
2024-02-11T08:50:02.250Z,831.0000
2024-02-11T08:51:02.760Z,823.0000
2024-02-11T08:52:04.639Z,811.0000
2024-02-11T08:53:07.156Z,804.0000
2024-02-11T08:54:09.261Z,800.0000
2024-02-11T08:55:11.554Z,794.0000
2024-02-11T08:56:13.881Z,788.0000
2024-02-11T08:57:16.150Z,787.0000
2024-02-11T08:58:16.305Z,781.0000
2024-02-11T08:59:18.661Z,774.0000
2024-02-11T09:00:20.842Z,780.0000
2024-02-11T09:01:23.110Z,840.0000
2024-02-11T09:02:23.349Z,834.0000
2024-02-11T09:03:25.574Z,833.0000
2024-02-11T09:04:27.975Z,830.0000
2024-02-11T09:05:30.227Z,820.0000
2024-02-11T09:06:30.303Z,800.0000
2024-02-11T09:07:32.508Z,798.0000
2024-02-11T09:08:34.925Z,794.0000
2024-02-11T09:09:37.070Z,785.0000
2024-02-11T09:10:39.415Z,761.0000
2024-02-11T09:11:41.634Z,758.0000
2024-02-11T09:12:43.997Z,759.0000
2024-02-11T09:13:45.919Z,760.0000
2024-02-11T09:14:46.370Z,760.0000
2024-02-11T09:15:48.612Z,755.0000
2024-02-11T09:16:50.872Z,754.0000
2024-02-11T09:17:51.040Z,749.0000
2024-02-11T09:18:53.365Z,745.0000
2024-02-11T09:19:55.590Z,741.0000
2024-02-11T09:20:57.856Z,740.0000
2024-02-11T09:21:57.953Z,738.0000
2024-02-11T09:24:13.313Z,715.0000
2024-02-11T09:25:16.383Z,712.0000
2024-02-11T09:26:18.902Z,711.0000
2024-02-11T09:27:19.817Z,715.0000
2024-02-11T09:28:22.075Z,708.0000
2024-02-11T09:29:24.535Z,715.0000
2024-02-11T09:30:26.702Z,739.0000
2024-02-11T09:31:28.762Z,774.0000
2024-02-11T09:32:31.136Z,773.0000
2024-02-11T09:33:33.294Z,773.0000
2024-02-11T09:34:35.471Z,766.0000
2024-02-11T09:35:37.606Z,759.0000
2024-02-11T09:36:39.748Z,759.0000
2024-02-11T09:37:39.763Z,754.0000
2024-02-11T09:38:40.690Z,749.0000
2024-02-11T09:39:42.863Z,740.0000
2024-02-11T09:40:44.922Z,735.0000
2024-02-11T09:41:47.050Z,736.0000
2024-02-11T09:42:49.237Z,726.0000
2024-02-11T09:43:51.413Z,726.0000
2024-02-11T09:44:53.639Z,726.0000
2024-02-11T09:45:55.851Z,726.0000
2024-02-11T09:46:58.098Z,723.0000
2024-02-11T09:48:00.433Z,721.0000
2024-02-11T09:49:02.604Z,718.0000
2024-02-11T09:50:04.831Z,720.0000
2024-02-11T09:51:06.962Z,719.0000
2024-02-11T09:52:07.044Z,722.0000
2024-02-11T09:53:09.304Z,719.0000
2024-02-11T09:54:11.452Z,719.0000
2024-02-11T09:55:13.706Z,713.0000
2024-02-11T09:56:15.935Z,718.0000
2024-02-11T09:57:18.032Z,758.0000
2024-02-11T09:58:20.264Z,766.0000
2024-02-11T09:59:22.621Z,774.0000
2024-02-11T10:00:24.748Z,780.0000
2024-02-11T10:01:26.940Z,784.0000
2024-02-11T10:02:29.322Z,788.0000
2024-02-11T10:03:31.471Z,797.0000
2024-02-11T10:04:33.675Z,795.0000
2024-02-11T10:05:35.978Z,784.0000
2024-02-11T10:06:38.174Z,773.0000
2024-02-11T10:07:40.420Z,762.0000
2024-02-11T10:08:42.644Z,747.0000
2024-02-11T10:09:44.852Z,746.0000
2024-02-11T10:10:47.226Z,743.0000
2024-02-11T10:11:49.382Z,741.0000
2024-02-11T10:12:51.591Z,739.0000
2024-02-11T10:13:53.929Z,738.0000
2024-02-11T10:14:56.044Z,735.0000
2024-02-11T10:15:58.242Z,736.0000
2024-02-11T10:17:00.554Z,738.0000
2024-02-11T10:18:02.744Z,733.0000
2024-02-11T10:19:04.944Z,737.0000
2024-02-11T10:20:07.139Z,761.0000
2024-02-11T10:21:09.350Z,774.0000
2024-02-11T10:22:19.905Z,792.0000
2024-02-11T10:23:11.652Z,798.0000
2024-02-11T10:24:13.858Z,803.0000
2024-02-11T10:25:16.105Z,808.0000
2024-02-11T10:26:18.391Z,809.0000
2024-02-11T10:27:20.552Z,804.0000
2024-02-11T10:28:22.751Z,799.0000
2024-02-11T10:29:25.039Z,798.0000
2024-02-11T10:30:27.260Z,791.0000
2024-02-11T10:31:29.547Z,797.0000
2024-02-11T10:32:32.154Z,794.0000
2024-02-11T10:33:34.404Z,774.0000
2024-02-11T10:34:36.368Z,742.0000
2024-02-11T10:35:36.529Z,702.0000
2024-02-11T10:36:38.756Z,703.0000
2024-02-11T10:37:40.924Z,700.0000
2024-02-11T10:38:43.089Z,685.0000
2024-02-11T10:39:45.469Z,687.0000
2024-02-11T10:40:45.435Z,692.0000
2024-02-11T10:41:47.570Z,691.0000
2024-02-11T10:42:49.770Z,693.0000
2024-02-11T10:43:51.953Z,689.0000
2024-02-11T10:44:54.108Z,684.0000
2024-02-11T10:45:56.424Z,683.0000
2024-02-11T10:46:58.536Z,686.0000
2024-02-11T10:48:00.903Z,689.0000
2024-02-11T10:49:03.000Z,687.0000
2024-02-11T10:50:05.251Z,696.0000
2024-02-11T10:51:07.455Z,696.0000
2024-02-11T10:52:09.704Z,699.0000
2024-02-11T10:53:11.991Z,696.0000
2024-02-11T10:55:29.408Z,920.0000
2024-02-11T10:56:31.674Z,890.0000
2024-02-11T10:57:33.824Z,755.0000
2024-02-11T10:58:36.049Z,765.0000
2024-02-11T10:59:38.259Z,750.0000
2024-02-11T11:00:40.623Z,766.0000
2024-02-11T11:01:42.812Z,766.0000
2024-02-11T11:02:45.052Z,766.0000
2024-02-11T11:03:45.201Z,760.0000
2024-02-11T11:04:47.520Z,755.0000
2024-02-11T11:05:49.682Z,746.0000
2024-02-11T11:06:51.934Z,739.0000
2024-02-11T11:07:54.222Z,738.0000
2024-02-11T11:10:26.696Z,727.0000
2024-02-11T11:11:28.903Z,727.0000
2024-02-11T11:12:30.950Z,608.0000
2024-02-11T11:13:33.155Z,555.0000
2024-02-11T11:14:35.294Z,527.0000
2024-02-11T11:15:37.507Z,514.0000
2024-02-11T11:16:39.752Z,501.0000
2024-02-11T11:17:41.934Z,482.0000
2024-02-11T11:18:44.177Z,468.0000
2024-02-11T11:19:46.388Z,450.0000
2024-02-11T11:20:46.477Z,440.0000
2024-02-11T11:21:48.652Z,450.0000
2024-02-11T11:22:50.913Z,565.0000
2024-02-11T11:23:53.054Z,569.0000
2024-02-11T11:24:55.220Z,658.0000
2024-02-11T11:25:57.443Z,633.0000
2024-02-11T11:26:59.640Z,516.0000
2024-02-11T11:28:01.864Z,511.0000
2024-02-11T11:29:04.261Z,504.0000
2024-02-11T11:30:06.373Z,504.0000
2024-02-11T11:31:08.621Z,497.0000
2024-02-11T11:32:11.064Z,488.0000
2024-02-11T11:33:13.111Z,481.0000
2024-02-11T11:34:13.217Z,479.0000
2024-02-11T11:35:15.619Z,476.0000
2024-02-11T11:36:17.601Z,474.0000
2024-02-11T11:37:19.838Z,474.0000
2024-02-11T11:38:22.120Z,471.0000
2024-02-11T11:39:24.268Z,470.0000
2024-02-11T11:40:26.531Z,470.0000
2024-02-11T11:41:28.997Z,472.0000
2024-02-11T11:42:31.004Z,472.0000
2024-02-11T11:43:33.223Z,473.0000
2024-02-11T11:44:35.497Z,473.0000
2024-02-11T11:45:35.557Z,472.0000
2024-02-11T11:46:37.838Z,473.0000
2024-02-11T11:47:40.445Z,476.0000
2024-02-11T11:48:42.492Z,481.0000
2024-02-11T11:49:44.536Z,487.0000
2024-02-11T11:50:46.745Z,482.0000
2024-02-11T11:51:49.017Z,483.0000
2024-02-11T11:52:51.246Z,494.0000
2024-02-11T11:53:53.481Z,1053.0000
2024-02-11T11:54:55.721Z,904.0000
2024-02-11T11:55:58.141Z,1053.0000
2024-02-11T11:56:58.155Z,960.0000
2024-02-11T11:58:00.416Z,999.0000
2024-02-11T11:59:02.715Z,996.0000
2024-02-11T12:00:05.022Z,966.0000
2024-02-11T12:02:20.340Z,845.0000
2024-02-11T12:03:22.426Z,827.0000
2024-02-11T12:04:24.844Z,786.0000
2024-02-11T12:05:26.960Z,759.0000
2024-02-11T12:06:29.201Z,733.0000
2024-02-11T12:07:31.419Z,724.0000
2024-02-11T12:08:37.267Z,706.0000
2024-02-11T12:09:35.844Z,688.0000
2024-02-11T12:10:38.081Z,665.0000
2024-02-11T12:11:40.293Z,658.0000
2024-02-11T12:12:42.575Z,650.0000
2024-02-11T12:13:42.820Z,638.0000